sensor_id;sensor_type;location;lat;lon;timestamp;P1;durP1;ratioP1;P2;durP2;ratioP2
64063;SDS011;50314;50.618;10.642;2023-01-20T00:01:03;5.57;;;4.13;;
64063;SDS011;50314;50.618;10.642;2023-01-20T00:03:29;5.82;;;3.58;;
64063;SDS011;50314;50.618;10.642;2023-01-20T00:05:54;5.28;;;3.70;;
64063;SDS011;50314;50.618;10.642;2023-01-20T00:08:20;5.15;;;3.22;;
64063;SDS011;50314;50.618;10.642;2023-01-20T00:10:45;4.65;;;3.75;;
64063;SDS011;50314;50.618;10.642;2023-01-20T00:13:10;5.57;;;3.88;;
64063;SDS011;50314;50.618;10.642;2023-01-20T00:15:36;4.97;;;3.58;;
64063;SDS011;50314;50.618;10.642;2023-01-20T00:18:01;4.35;;;3.47;;
64063;SDS011;50314;50.618;10.642;2023-01-20T00:20:27;5.32;;;3.97;;
64063;SDS011;50314;50.618;10.642;2023-01-20T00:22:52;5.80;;;3.60;;
64063;SDS011;50314;50.618;10.642;2023-01-20T00:25:18;4.75;;;4.13;;
64063;SDS011;50314;50.618;10.642;2023-01-20T00:27:44;5.43;;;3.65;;
64063;SDS011;50314;50.618;10.642;2023-01-20T00:30:10;5.00;;;3.50;;
64063;SDS011;50314;50.618;10.642;2023-01-20T00:32:37;4.90;;;3.60;;
64063;SDS011;50314;50.618;10.642;2023-01-20T00:35:04;4.35;;;3.38;;
64063;SDS011;50314;50.618;10.642;2023-01-20T00:37:30;4.85;;;3.25;;
64063;SDS011;50314;50.618;10.642;2023-01-20T00:39:56;4.85;;;3.60;;
64063;SDS011;50314;50.618;10.642;2023-01-20T00:42:21;5.30;;;3.60;;
64063;SDS011;50314;50.618;10.642;2023-01-20T00:44:47;4.82;;;3.53;;
64063;SDS011;50314;50.618;10.642;2023-01-20T00:47:13;4.95;;;3.38;;
64063;SDS011;50314;50.618;10.642;2023-01-20T00:49:38;5.72;;;3.47;;
64063;SDS011;50314;50.618;10.642;2023-01-20T00:52:04;4.95;;;3.47;;
64063;SDS011;50314;50.618;10.642;2023-01-20T00:54:29;4.97;;;3.33;;
64063;SDS011;50314;50.618;10.642;2023-01-20T00:56:55;4.50;;;3.33;;
64063;SDS011;50314;50.618;10.642;2023-01-20T00:59:20;4.75;;;3.47;;
64063;SDS011;50314;50.618;10.642;2023-01-20T01:01:46;4.43;;;3.40;;
64063;SDS011;50314;50.618;10.642;2023-01-20T01:04:11;4.82;;;3.50;;
64063;SDS011;50314;50.618;10.642;2023-01-20T01:06:37;4.78;;;3.38;;
64063;SDS011;50314;50.618;10.642;2023-01-20T01:09:03;4.10;;;3.13;;
64063;SDS011;50314;50.618;10.642;2023-01-20T01:11:29;4.22;;;3.08;;
64063;SDS011;50314;50.618;10.642;2023-01-20T01:13:55;5.43;;;3.58;;
64063;SDS011;50314;50.618;10.642;2023-01-20T01:16:21;4.05;;;3.50;;
64063;SDS011;50314;50.618;10.642;2023-01-20T01:18:47;4.40;;;3.25;;
64063;SDS011;50314;50.618;10.642;2023-01-20T01:21:14;4.60;;;3.58;;
64063;SDS011;50314;50.618;10.642;2023-01-20T01:23:41;4.80;;;3.20;;
64063;SDS011;50314;50.618;10.642;2023-01-20T01:26:07;5.00;;;3.67;;
64063;SDS011;50314;50.618;10.642;2023-01-20T01:28:34;5.10;;;3.53;;
64063;SDS011;50314;50.618;10.642;2023-01-20T01:31:00;5.05;;;3.55;;
64063;SDS011;50314;50.618;10.642;2023-01-20T01:33:27;4.35;;;3.13;;
64063;SDS011;50314;50.618;10.642;2023-01-20T01:35:53;3.80;;;3.20;;
64063;SDS011;50314;50.618;10.642;2023-01-20T01:38:20;4.70;;;3.40;;
64063;SDS011;50314;50.618;10.642;2023-01-20T01:40:48;3.97;;;3.15;;
64063;SDS011;50314;50.618;10.642;2023-01-20T01:43:27;4.45;;;3.10;;
64063;SDS011;50314;50.618;10.642;2023-01-20T01:45:55;4.80;;;3.00;;
64063;SDS011;50314;50.618;10.642;2023-01-20T01:48:42;3.10;;;2.53;;
64063;SDS011;50314;50.618;10.642;2023-01-20T01:51:11;4.22;;;2.80;;
64063;SDS011;50314;50.618;10.642;2023-01-20T01:53:47;3.97;;;2.85;;
64063;SDS011;50314;50.618;10.642;2023-01-20T01:56:18;4.30;;;3.00;;
64063;SDS011;50314;50.618;10.642;2023-01-20T01:58:46;4.22;;;3.38;;
64063;SDS011;50314;50.618;10.642;2023-01-20T02:01:25;4.78;;;3.08;;
64063;SDS011;50314;50.618;10.642;2023-01-20T02:03:56;4.60;;;3.28;;
64063;SDS011;50314;50.618;10.642;2023-01-20T02:06:30;4.43;;;2.85;;
64063;SDS011;50314;50.618;10.642;2023-01-20T02:08:58;3.95;;;2.78;;
64063;SDS011;50314;50.618;10.642;2023-01-20T02:11:26;4.43;;;2.72;;
64063;SDS011;50314;50.618;10.642;2023-01-20T02:13:52;4.07;;;3.10;;
64063;SDS011;50314;50.618;10.642;2023-01-20T02:16:40;4.43;;;3.20;;
64063;SDS011;50314;50.618;10.642;2023-01-20T02:27:19;3.55;;;2.25;;
64063;SDS011;50314;50.618;10.642;2023-01-20T02:33:15;3.85;;;2.40;;
64063;SDS011;50314;50.618;10.642;2023-01-20T02:35:50;4.13;;;2.65;;
64063;SDS011;50314;50.618;10.642;2023-01-20T02:43:44;3.60;;;2.90;;
64063;SDS011;50314;50.618;10.642;2023-01-20T02:48:54;3.78;;;2.55;;
64063;SDS011;50314;50.618;10.642;2023-01-20T02:51:35;3.90;;;2.72;;
64063;SDS011;50314;50.618;10.642;2023-01-20T02:54:07;4.28;;;2.78;;
64063;SDS011;50314;50.618;10.642;2023-01-20T02:56:37;3.58;;;2.28;;
64063;SDS011;50314;50.618;10.642;2023-01-20T02:59:05;3.42;;;2.55;;
64063;SDS011;50314;50.618;10.642;2023-01-20T03:01:33;4.20;;;2.53;;
64063;SDS011;50314;50.618;10.642;2023-01-20T03:04:03;3.92;;;2.50;;
64063;SDS011;50314;50.618;10.642;2023-01-20T03:06:37;3.25;;;2.40;;
64063;SDS011;50314;50.618;10.642;2023-01-20T03:09:08;3.78;;;2.85;;
64063;SDS011;50314;50.618;10.642;2023-01-20T03:11:37;4.20;;;2.60;;
64063;SDS011;50314;50.618;10.642;2023-01-20T03:14:09;4.13;;;2.80;;
64063;SDS011;50314;50.618;10.642;2023-01-20T03:16:37;4.20;;;2.88;;
64063;SDS011;50314;50.618;10.642;2023-01-20T03:19:04;3.78;;;2.75;;
64063;SDS011;50314;50.618;10.642;2023-01-20T03:21:29;3.75;;;2.50;;
64063;SDS011;50314;50.618;10.642;2023-01-20T03:24:00;3.35;;;2.50;;
64063;SDS011;50314;50.618;10.642;2023-01-20T03:26:27;3.78;;;2.65;;
64063;SDS011;50314;50.618;10.642;2023-01-20T03:28:54;3.13;;;2.40;;
64063;SDS011;50314;50.618;10.642;2023-01-20T03:31:25;3.22;;;2.47;;
64063;SDS011;50314;50.618;10.642;2023-01-20T03:33:55;3.45;;;2.50;;
64063;SDS011;50314;50.618;10.642;2023-01-20T03:36:23;3.65;;;2.45;;
64063;SDS011;50314;50.618;10.642;2023-01-20T03:38:51;4.00;;;2.75;;
64063;SDS011;50314;50.618;10.642;2023-01-20T03:44:22;3.72;;;2.67;;
64063;SDS011;50314;50.618;10.642;2023-01-20T03:47:29;2.95;;;2.10;;
64063;SDS011;50314;50.618;10.642;2023-01-20T03:56:19;2.65;;;2.28;;
64063;SDS011;50314;50.618;10.642;2023-01-20T03:58:51;3.58;;;2.55;;
64063;SDS011;50314;50.618;10.642;2023-01-20T04:01:20;3.80;;;2.30;;
64063;SDS011;50314;50.618;10.642;2023-01-20T04:03:49;3.13;;;2.20;;
64063;SDS011;50314;50.618;10.642;2023-01-20T04:06:18;4.22;;;3.00;;
64063;SDS011;50314;50.618;10.642;2023-01-20T04:08:50;2.97;;;2.13;;
64063;SDS011;50314;50.618;10.642;2023-01-20T04:11:19;3.75;;;2.60;;
64063;SDS011;50314;50.618;10.642;2023-01-20T04:13:45;3.60;;;2.35;;
64063;SDS011;50314;50.618;10.642;2023-01-20T04:16:15;2.97;;;2.17;;
64063;SDS011;50314;50.618;10.642;2023-01-20T04:18:42;4.00;;;2.47;;
64063;SDS011;50314;50.618;10.642;2023-01-20T04:21:44;2.80;;;2.17;;
64063;SDS011;50314;50.618;10.642;2023-01-20T04:24:10;2.83;;;2.08;;
64063;SDS011;50314;50.618;10.642;2023-01-20T04:26:43;3.13;;;2.40;;
64063;SDS011;50314;50.618;10.642;2023-01-20T04:29:09;2.58;;;2.10;;
64063;SDS011;50314;50.618;10.642;2023-01-20T04:31:34;3.95;;;2.70;;
64063;SDS011;50314;50.618;10.642;2023-01-20T04:34:00;3.80;;;2.45;;
64063;SDS011;50314;50.618;10.642;2023-01-20T04:36:26;2.88;;;1.98;;
64063;SDS011;50314;50.618;10.642;2023-01-20T04:38:51;3.53;;;2.38;;
64063;SDS011;50314;50.618;10.642;2023-01-20T04:41:17;3.30;;;2.10;;
64063;SDS011;50314;50.618;10.642;2023-01-20T04:43:43;4.03;;;2.42;;
64063;SDS011;50314;50.618;10.642;2023-01-20T04:46:10;3.42;;;2.42;;
64063;SDS011;50314;50.618;10.642;2023-01-20T04:48:36;3.53;;;2.55;;
64063;SDS011;50314;50.618;10.642;2023-01-20T04:51:05;3.08;;;2.33;;
64063;SDS011;50314;50.618;10.642;2023-01-20T04:53:31;2.92;;;2.25;;
64063;SDS011;50314;50.618;10.642;2023-01-20T04:55:57;3.00;;;2.25;;
64063;SDS011;50314;50.618;10.642;2023-01-20T04:58:23;3.20;;;2.35;;
64063;SDS011;50314;50.618;10.642;2023-01-20T05:00:49;3.17;;;2.10;;
64063;SDS011;50314;50.618;10.642;2023-01-20T05:03:14;4.07;;;2.67;;
64063;SDS011;50314;50.618;10.642;2023-01-20T05:05:40;3.95;;;3.15;;
64063;SDS011;50314;50.618;10.642;2023-01-20T05:08:05;4.15;;;2.80;;
64063;SDS011;50314;50.618;10.642;2023-01-20T05:10:31;3.15;;;2.40;;
64063;SDS011;50314;50.618;10.642;2023-01-20T05:12:57;3.80;;;2.50;;
64063;SDS011;50314;50.618;10.642;2023-01-20T05:15:23;3.05;;;2.10;;
64063;SDS011;50314;50.618;10.642;2023-01-20T05:17:49;3.28;;;2.28;;
64063;SDS011;50314;50.618;10.642;2023-01-20T05:20:14;2.88;;;2.47;;
64063;SDS011;50314;50.618;10.642;2023-01-20T05:22:40;3.80;;;2.50;;
64063;SDS011;50314;50.618;10.642;2023-01-20T05:25:06;3.15;;;2.55;;
64063;SDS011;50314;50.618;10.642;2023-01-20T05:27:35;3.25;;;2.33;;
64063;SDS011;50314;50.618;10.642;2023-01-20T05:30:02;2.63;;;1.90;;
64063;SDS011;50314;50.618;10.642;2023-01-20T05:32:28;3.40;;;2.70;;
64063;SDS011;50314;50.618;10.642;2023-01-20T05:34:53;4.75;;;3.03;;
64063;SDS011;50314;50.618;10.642;2023-01-20T05:37:19;3.53;;;2.42;;
64063;SDS011;50314;50.618;10.642;2023-01-20T05:39:44;3.67;;;2.55;;
64063;SDS011;50314;50.618;10.642;2023-01-20T05:42:10;3.47;;;2.10;;
64063;SDS011;50314;50.618;10.642;2023-01-20T05:44:35;3.97;;;2.50;;
64063;SDS011;50314;50.618;10.642;2023-01-20T05:47:01;3.22;;;2.47;;
64063;SDS011;50314;50.618;10.642;2023-01-20T05:49:26;3.17;;;2.35;;
64063;SDS011;50314;50.618;10.642;2023-01-20T05:51:52;3.95;;;2.42;;
64063;SDS011;50314;50.618;10.642;2023-01-20T05:54:17;3.83;;;2.38;;
64063;SDS011;50314;50.618;10.642;2023-01-20T05:56:43;2.78;;;2.08;;
64063;SDS011;50314;50.618;10.642;2023-01-20T05:59:09;3.30;;;2.42;;
64063;SDS011;50314;50.618;10.642;2023-01-20T06:01:34;3.72;;;2.50;;
64063;SDS011;50314;50.618;10.642;2023-01-20T06:04:00;3.47;;;2.40;;
64063;SDS011;50314;50.618;10.642;2023-01-20T06:06:25;3.00;;;2.38;;
64063;SDS011;50314;50.618;10.642;2023-01-20T06:08:51;3.50;;;2.58;;
64063;SDS011;50314;50.618;10.642;2023-01-20T06:11:17;3.58;;;2.58;;
64063;SDS011;50314;50.618;10.642;2023-01-20T06:13:45;3.97;;;2.65;;
64063;SDS011;50314;50.618;10.642;2023-01-20T06:16:11;3.15;;;2.20;;
64063;SDS011;50314;50.618;10.642;2023-01-20T06:18:36;4.80;;;2.88;;
64063;SDS011;50314;50.618;10.642;2023-01-20T06:21:02;4.18;;;2.55;;
64063;SDS011;50314;50.618;10.642;2023-01-20T06:23:27;4.22;;;2.45;;
64063;SDS011;50314;50.618;10.642;2023-01-20T06:26:03;4.32;;;2.53;;
64063;SDS011;50314;50.618;10.642;2023-01-20T06:28:30;4.03;;;2.65;;
64063;SDS011;50314;50.618;10.642;2023-01-20T06:31:00;3.83;;;2.40;;
64063;SDS011;50314;50.618;10.642;2023-01-20T06:33:34;3.80;;;2.40;;
64063;SDS011;50314;50.618;10.642;2023-01-20T06:35:59;3.60;;;2.35;;
64063;SDS011;50314;50.618;10.642;2023-01-20T06:38:27;3.47;;;2.25;;
64063;SDS011;50314;50.618;10.642;2023-01-20T06:40:57;2.75;;;2.33;;
64063;SDS011;50314;50.618;10.642;2023-01-20T06:43:24;3.88;;;2.33;;
64063;SDS011;50314;50.618;10.642;2023-01-20T06:45:49;4.22;;;2.65;;
64063;SDS011;50314;50.618;10.642;2023-01-20T06:48:15;3.72;;;2.30;;
64063;SDS011;50314;50.618;10.642;2023-01-20T06:50:41;3.38;;;2.75;;
64063;SDS011;50314;50.618;10.642;2023-01-20T06:53:06;3.83;;;2.35;;
64063;SDS011;50314;50.618;10.642;2023-01-20T06:55:32;5.20;;;2.28;;
64063;SDS011;50314;50.618;10.642;2023-01-20T06:57:58;5.28;;;2.60;;
64063;SDS011;50314;50.618;10.642;2023-01-20T07:00:23;4.30;;;3.05;;
64063;SDS011;50314;50.618;10.642;2023-01-20T07:02:48;3.40;;;2.58;;
64063;SDS011;50314;50.618;10.642;2023-01-20T07:05:14;4.75;;;3.08;;
64063;SDS011;50314;50.618;10.642;2023-01-20T07:07:42;3.83;;;2.72;;
64063;SDS011;50314;50.618;10.642;2023-01-20T07:10:13;4.70;;;2.90;;
64063;SDS011;50314;50.618;10.642;2023-01-20T07:12:38;4.60;;;3.15;;
64063;SDS011;50314;50.618;10.642;2023-01-20T07:15:04;3.83;;;2.60;;
64063;SDS011;50314;50.618;10.642;2023-01-20T07:17:29;3.88;;;2.53;;
64063;SDS011;50314;50.618;10.642;2023-01-20T07:19:55;3.67;;;2.60;;
64063;SDS011;50314;50.618;10.642;2023-01-20T07:22:20;2.83;;;2.30;;
64063;SDS011;50314;50.618;10.642;2023-01-20T07:24:46;4.35;;;2.75;;
64063;SDS011;50314;50.618;10.642;2023-01-20T07:27:11;4.47;;;3.08;;
64063;SDS011;50314;50.618;10.642;2023-01-20T07:29:39;3.50;;;2.63;;
64063;SDS011;50314;50.618;10.642;2023-01-20T07:32:04;3.80;;;2.65;;
64063;SDS011;50314;50.618;10.642;2023-01-20T07:34:30;4.30;;;2.83;;
64063;SDS011;50314;50.618;10.642;2023-01-20T07:36:56;3.40;;;2.47;;
64063;SDS011;50314;50.618;10.642;2023-01-20T07:39:21;3.40;;;2.63;;
64063;SDS011;50314;50.618;10.642;2023-01-20T07:41:47;3.80;;;2.83;;
64063;SDS011;50314;50.618;10.642;2023-01-20T07:44:15;4.50;;;2.83;;
64063;SDS011;50314;50.618;10.642;2023-01-20T07:46:41;3.35;;;2.42;;
64063;SDS011;50314;50.618;10.642;2023-01-20T07:49:06;3.47;;;2.45;;
64063;SDS011;50314;50.618;10.642;2023-01-20T07:51:32;4.25;;;2.70;;
64063;SDS011;50314;50.618;10.642;2023-01-20T07:53:57;3.50;;;2.58;;
64063;SDS011;50314;50.618;10.642;2023-01-20T07:56:25;4.20;;;2.47;;
64063;SDS011;50314;50.618;10.642;2023-01-20T07:58:52;4.65;;;2.90;;
64063;SDS011;50314;50.618;10.642;2023-01-20T08:01:25;4.15;;;2.75;;
64063;SDS011;50314;50.618;10.642;2023-01-20T08:03:52;3.22;;;2.33;;
64063;SDS011;50314;50.618;10.642;2023-01-20T08:06:19;4.03;;;2.72;;
64063;SDS011;50314;50.618;10.642;2023-01-20T08:08:46;3.38;;;2.50;;
64063;SDS011;50314;50.618;10.642;2023-01-20T08:11:12;4.38;;;2.58;;
64063;SDS011;50314;50.618;10.642;2023-01-20T08:13:39;3.70;;;2.53;;
64063;SDS011;50314;50.618;10.642;2023-01-20T08:16:06;3.80;;;2.50;;
64063;SDS011;50314;50.618;10.642;2023-01-20T08:18:34;3.50;;;2.47;;
64063;SDS011;50314;50.618;10.642;2023-01-20T08:21:00;3.40;;;2.50;;
64063;SDS011;50314;50.618;10.642;2023-01-20T08:23:30;4.45;;;2.75;;
64063;SDS011;50314;50.618;10.642;2023-01-20T08:25:57;3.22;;;2.58;;
64063;SDS011;50314;50.618;10.642;2023-01-20T08:28:24;3.55;;;2.72;;
64063;SDS011;50314;50.618;10.642;2023-01-20T08:30:50;3.83;;;2.85;;
64063;SDS011;50314;50.618;10.642;2023-01-20T08:33:15;3.53;;;2.33;;
64063;SDS011;50314;50.618;10.642;2023-01-20T08:35:41;4.15;;;2.45;;
64063;SDS011;50314;50.618;10.642;2023-01-20T08:38:06;4.88;;;3.08;;
64063;SDS011;50314;50.618;10.642;2023-01-20T08:40:33;4.05;;;2.72;;
64063;SDS011;50314;50.618;10.642;2023-01-20T08:42:58;3.58;;;2.92;;
64063;SDS011;50314;50.618;10.642;2023-01-20T08:45:24;4.10;;;2.92;;
64063;SDS011;50314;50.618;10.642;2023-01-20T08:47:49;3.28;;;2.60;;
64063;SDS011;50314;50.618;10.642;2023-01-20T08:50:15;3.58;;;2.80;;
64063;SDS011;50314;50.618;10.642;2023-01-20T08:52:41;4.45;;;2.88;;
64063;SDS011;50314;50.618;10.642;2023-01-20T08:55:07;4.85;;;2.90;;
64063;SDS011;50314;50.618;10.642;2023-01-20T08:57:34;3.97;;;2.60;;
64063;SDS011;50314;50.618;10.642;2023-01-20T08:59:59;3.08;;;2.38;;
64063;SDS011;50314;50.618;10.642;2023-01-20T09:02:25;2.85;;;2.30;;
64063;SDS011;50314;50.618;10.642;2023-01-20T09:04:50;4.75;;;2.75;;
64063;SDS011;50314;50.618;10.642;2023-01-20T09:07:17;3.83;;;2.92;;
64063;SDS011;50314;50.618;10.642;2023-01-20T09:12:09;3.38;;;2.65;;
64063;SDS011;50314;50.618;10.642;2023-01-20T09:14:35;3.33;;;2.72;;
64063;SDS011;50314;50.618;10.642;2023-01-20T09:17:00;3.25;;;2.35;;
64063;SDS011;50314;50.618;10.642;2023-01-20T09:19:27;3.60;;;2.63;;
64063;SDS011;50314;50.618;10.642;2023-01-20T09:21:54;4.03;;;2.97;;
64063;SDS011;50314;50.618;10.642;2023-01-20T09:24:20;3.15;;;2.28;;
64063;SDS011;50314;50.618;10.642;2023-01-20T09:26:46;3.08;;;2.42;;
64063;SDS011;50314;50.618;10.642;2023-01-20T09:29:14;3.97;;;2.70;;
64063;SDS011;50314;50.618;10.642;2023-01-20T09:31:48;2.72;;;2.40;;
64063;SDS011;50314;50.618;10.642;2023-01-20T09:34:22;3.72;;;2.85;;
64063;SDS011;50314;50.618;10.642;2023-01-20T09:36:58;3.10;;;2.50;;
64063;SDS011;50314;50.618;10.642;2023-01-20T09:39:43;3.67;;;2.42;;
64063;SDS011;50314;50.618;10.642;2023-01-20T09:45:17;3.10;;;2.35;;
64063;SDS011;50314;50.618;10.642;2023-01-20T09:48:10;3.05;;;2.60;;
64063;SDS011;50314;50.618;10.642;2023-01-20T09:51:02;2.88;;;2.03;;
64063;SDS011;50314;50.618;10.642;2023-01-20T09:56:49;3.80;;;2.40;;
64063;SDS011;50314;50.618;10.642;2023-01-20T09:59:30;3.90;;;3.00;;
64063;SDS011;50314;50.618;10.642;2023-01-20T10:02:03;4.03;;;2.30;;
64063;SDS011;50314;50.618;10.642;2023-01-20T10:04:40;3.47;;;2.35;;
64063;SDS011;50314;50.618;10.642;2023-01-20T10:09:44;3.13;;;2.40;;
64063;SDS011;50314;50.618;10.642;2023-01-20T10:17:55;4.20;;;3.15;;
64063;SDS011;50314;50.618;10.642;2023-01-20T10:28:58;3.85;;;2.15;;
64063;SDS011;50314;50.618;10.642;2023-01-20T10:31:28;3.65;;;2.50;;
64063;SDS011;50314;50.618;10.642;2023-01-20T10:34:00;3.53;;;2.33;;
64063;SDS011;50314;50.618;10.642;2023-01-20T10:36:35;3.65;;;2.13;;
64063;SDS011;50314;50.618;10.642;2023-01-20T10:39:19;3.70;;;2.80;;
64063;SDS011;50314;50.618;10.642;2023-01-20T10:41:53;3.20;;;2.20;;
64063;SDS011;50314;50.618;10.642;2023-01-20T10:44:26;3.88;;;2.22;;
64063;SDS011;50314;50.618;10.642;2023-01-20T10:59:45;2.00;;;1.80;;
64063;SDS011;50314;50.618;10.642;2023-01-20T11:02:24;2.92;;;2.10;;
64063;SDS011;50314;50.618;10.642;2023-01-20T11:05:24;3.05;;;1.85;;
64063;SDS011;50314;50.618;10.642;2023-01-20T11:07:45;3.30;;;2.25;;
64063;SDS011;50314;50.618;10.642;2023-01-20T11:10:14;3.28;;;1.98;;
64063;SDS011;50314;50.618;10.642;2023-01-20T11:12:42;2.30;;;2.00;;
64063;SDS011;50314;50.618;10.642;2023-01-20T11:15:16;2.90;;;1.88;;
64063;SDS011;50314;50.618;10.642;2023-01-20T11:17:43;2.58;;;1.88;;
64063;SDS011;50314;50.618;10.642;2023-01-20T11:20:13;3.05;;;2.20;;
64063;SDS011;50314;50.618;10.642;2023-01-20T11:22:47;2.55;;;2.20;;
64063;SDS011;50314;50.618;10.642;2023-01-20T11:25:21;2.35;;;1.98;;
64063;SDS011;50314;50.618;10.642;2023-01-20T11:27:50;2.35;;;1.95;;
64063;SDS011;50314;50.618;10.642;2023-01-20T11:30:23;2.90;;;2.20;;
64063;SDS011;50314;50.618;10.642;2023-01-20T11:38:45;2.58;;;1.88;;
64063;SDS011;50314;50.618;10.642;2023-01-20T11:41:21;2.60;;;1.88;;
64063;SDS011;50314;50.618;10.642;2023-01-20T11:43:56;2.00;;;1.38;;
64063;SDS011;50314;50.618;10.642;2023-01-20T11:46:30;2.92;;;1.67;;
64063;SDS011;50314;50.618;10.642;2023-01-20T11:51:44;2.75;;;1.92;;
64063;SDS011;50314;50.618;10.642;2023-01-20T11:54:13;1.90;;;1.60;;
64063;SDS011;50314;50.618;10.642;2023-01-20T11:56:41;2.30;;;1.60;;
64063;SDS011;50314;50.618;10.642;2023-01-20T11:59:17;1.90;;;1.70;;
64063;SDS011;50314;50.618;10.642;2023-01-20T12:02:20;2.25;;;1.60;;
64063;SDS011;50314;50.618;10.642;2023-01-20T12:07:23;1.98;;;1.70;;
64063;SDS011;50314;50.618;10.642;2023-01-20T12:09:54;2.22;;;1.55;;
64063;SDS011;50314;50.618;10.642;2023-01-20T12:12:44;1.48;;;1.38;;
64063;SDS011;50314;50.618;10.642;2023-01-20T12:15:33;2.25;;;1.50;;
64063;SDS011;50314;50.618;10.642;2023-01-20T12:18:06;1.80;;;1.55;;
64063;SDS011;50314;50.618;10.642;2023-01-20T12:20:54;2.65;;;2.00;;
64063;SDS011;50314;50.618;10.642;2023-01-20T12:23:42;2.30;;;1.83;;
64063;SDS011;50314;50.618;10.642;2023-01-20T12:26:13;2.03;;;1.50;;
64063;SDS011;50314;50.618;10.642;2023-01-20T12:28:45;1.50;;;1.40;;
64063;SDS011;50314;50.618;10.642;2023-01-20T12:31:20;2.35;;;1.70;;
64063;SDS011;50314;50.618;10.642;2023-01-20T12:33:50;1.60;;;1.38;;
64063;SDS011;50314;50.618;10.642;2023-01-20T12:42:08;1.85;;;1.50;;
64063;SDS011;50314;50.618;10.642;2023-01-20T12:53:33;1.92;;;1.27;;
64063;SDS011;50314;50.618;10.642;2023-01-20T12:58:59;1.48;;;1.30;;
64063;SDS011;50314;50.618;10.642;2023-01-20T13:12:24;2.38;;;1.40;;
64063;SDS011;50314;50.618;10.642;2023-01-20T13:20:37;1.30;;;1.20;;
64063;SDS011;50314;50.618;10.642;2023-01-20T13:23:05;1.88;;;1.50;;
64063;SDS011;50314;50.618;10.642;2023-01-20T13:25:34;1.98;;;1.42;;
64063;SDS011;50314;50.618;10.642;2023-01-20T13:28:03;2.72;;;1.50;;
64063;SDS011;50314;50.618;10.642;2023-01-20T13:30:42;2.10;;;1.60;;
64063;SDS011;50314;50.618;10.642;2023-01-20T13:35:56;2.28;;;1.52;;
64063;SDS011;50314;50.618;10.642;2023-01-20T13:41:01;2.35;;;1.63;;
64063;SDS011;50314;50.618;10.642;2023-01-20T13:43:33;2.08;;;1.42;;
64063;SDS011;50314;50.618;10.642;2023-01-20T13:48:29;2.03;;;1.60;;
64063;SDS011;50314;50.618;10.642;2023-01-20T13:53:39;2.22;;;1.42;;
64063;SDS011;50314;50.618;10.642;2023-01-20T13:56:05;2.25;;;1.60;;
64063;SDS011;50314;50.618;10.642;2023-01-20T13:58:47;2.65;;;1.40;;
64063;SDS011;50314;50.618;10.642;2023-01-20T14:01:12;2.85;;;1.40;;
64063;SDS011;50314;50.618;10.642;2023-01-20T14:03:39;3.00;;;1.58;;
64063;SDS011;50314;50.618;10.642;2023-01-20T14:11:14;2.78;;;1.80;;
64063;SDS011;50314;50.618;10.642;2023-01-20T14:13:49;3.42;;;1.95;;
64063;SDS011;50314;50.618;10.642;2023-01-20T14:18:58;2.92;;;1.80;;
64063;SDS011;50314;50.618;10.642;2023-01-20T14:21:26;3.20;;;2.00;;
64063;SDS011;50314;50.618;10.642;2023-01-20T14:23:54;2.35;;;1.67;;
64063;SDS011;50314;50.618;10.642;2023-01-20T14:26:29;3.38;;;1.90;;
64063;SDS011;50314;50.618;10.642;2023-01-20T14:28:58;2.53;;;1.80;;
64063;SDS011;50314;50.618;10.642;2023-01-20T14:31:32;3.55;;;2.15;;
64063;SDS011;50314;50.618;10.642;2023-01-20T14:37:16;3.60;;;2.28;;
64063;SDS011;50314;50.618;10.642;2023-01-20T14:39:46;3.88;;;1.77;;
64063;SDS011;50314;50.618;10.642;2023-01-20T14:42:17;3.05;;;2.10;;
64063;SDS011;50314;50.618;10.642;2023-01-20T14:44:47;2.85;;;1.88;;
64063;SDS011;50314;50.618;10.642;2023-01-20T14:47:14;3.05;;;2.08;;
64063;SDS011;50314;50.618;10.642;2023-01-20T14:49:40;3.25;;;2.00;;
64063;SDS011;50314;50.618;10.642;2023-01-20T15:03:16;4.70;;;2.70;;
64063;SDS011;50314;50.618;10.642;2023-01-20T15:06:04;3.25;;;1.98;;
64063;SDS011;50314;50.618;10.642;2023-01-20T15:16:18;3.70;;;2.28;;
64063;SDS011;50314;50.618;10.642;2023-01-20T15:21:43;3.53;;;2.38;;
64063;SDS011;50314;50.618;10.642;2023-01-20T15:26:55;4.20;;;2.17;;
64063;SDS011;50314;50.618;10.642;2023-01-20T15:29:26;4.20;;;1.92;;
64063;SDS011;50314;50.618;10.642;2023-01-20T15:31:54;3.00;;;2.20;;
64063;SDS011;50314;50.618;10.642;2023-01-20T15:34:24;2.97;;;2.45;;
64063;SDS011;50314;50.618;10.642;2023-01-20T15:36:51;3.42;;;2.05;;
64063;SDS011;50314;50.618;10.642;2023-01-20T15:39:19;2.53;;;1.88;;
64063;SDS011;50314;50.618;10.642;2023-01-20T15:41:48;2.88;;;1.83;;
64063;SDS011;50314;50.618;10.642;2023-01-20T15:44:21;3.47;;;2.05;;
64063;SDS011;50314;50.618;10.642;2023-01-20T15:46:48;2.72;;;1.75;;
64063;SDS011;50314;50.618;10.642;2023-01-20T15:49:14;4.38;;;2.17;;
64063;SDS011;50314;50.618;10.642;2023-01-20T15:51:40;3.42;;;2.08;;
64063;SDS011;50314;50.618;10.642;2023-01-20T15:54:06;2.67;;;1.80;;
64063;SDS011;50314;50.618;10.642;2023-01-20T15:56:33;2.45;;;1.73;;
64063;SDS011;50314;50.618;10.642;2023-01-20T15:59:00;3.25;;;2.15;;
64063;SDS011;50314;50.618;10.642;2023-01-20T16:01:27;3.45;;;2.00;;
64063;SDS011;50314;50.618;10.642;2023-01-20T16:03:54;3.38;;;1.98;;
64063;SDS011;50314;50.618;10.642;2023-01-20T16:06:30;3.72;;;1.95;;
64063;SDS011;50314;50.618;10.642;2023-01-20T16:08:58;2.90;;;1.88;;
64063;SDS011;50314;50.618;10.642;2023-01-20T16:11:25;2.85;;;2.03;;
64063;SDS011;50314;50.618;10.642;2023-01-20T16:13:50;2.58;;;2.08;;
64063;SDS011;50314;50.618;10.642;2023-01-20T16:16:17;2.92;;;1.90;;
64063;SDS011;50314;50.618;10.642;2023-01-20T16:18:44;2.80;;;1.98;;
64063;SDS011;50314;50.618;10.642;2023-01-20T16:21:11;3.47;;;2.05;;
64063;SDS011;50314;50.618;10.642;2023-01-20T16:23:40;2.97;;;1.88;;
64063;SDS011;50314;50.618;10.642;2023-01-20T16:26:26;3.03;;;2.30;;
64063;SDS011;50314;50.618;10.642;2023-01-20T16:28:53;3.25;;;2.08;;
64063;SDS011;50314;50.618;10.642;2023-01-20T16:31:20;3.97;;;2.00;;
64063;SDS011;50314;50.618;10.642;2023-01-20T16:33:46;3.17;;;2.20;;
64063;SDS011;50314;50.618;10.642;2023-01-20T16:36:13;3.70;;;2.33;;
64063;SDS011;50314;50.618;10.642;2023-01-20T16:38:42;3.65;;;2.40;;
64063;SDS011;50314;50.618;10.642;2023-01-20T16:41:12;2.72;;;1.88;;
64063;SDS011;50314;50.618;10.642;2023-01-20T16:43:41;3.97;;;2.20;;
64063;SDS011;50314;50.618;10.642;2023-01-20T16:46:25;3.95;;;2.20;;
64063;SDS011;50314;50.618;10.642;2023-01-20T16:48:53;3.00;;;2.13;;
64063;SDS011;50314;50.618;10.642;2023-01-20T16:51:23;3.53;;;2.58;;
64063;SDS011;50314;50.618;10.642;2023-01-20T16:53:50;3.92;;;2.45;;
64063;SDS011;50314;50.618;10.642;2023-01-20T16:56:26;3.53;;;2.28;;
64063;SDS011;50314;50.618;10.642;2023-01-20T16:58:54;3.72;;;2.22;;
64063;SDS011;50314;50.618;10.642;2023-01-20T17:01:24;4.80;;;2.88;;
64063;SDS011;50314;50.618;10.642;2023-01-20T17:03:51;3.25;;;2.50;;
64063;SDS011;50314;50.618;10.642;2023-01-20T17:06:22;3.15;;;2.13;;
64063;SDS011;50314;50.618;10.642;2023-01-20T17:08:50;3.65;;;2.60;;
64063;SDS011;50314;50.618;10.642;2023-01-20T17:11:17;4.05;;;2.40;;
64063;SDS011;50314;50.618;10.642;2023-01-20T17:13:43;3.45;;;2.20;;
64063;SDS011;50314;50.618;10.642;2023-01-20T17:16:09;3.90;;;2.58;;
64063;SDS011;50314;50.618;10.642;2023-01-20T17:18:34;3.50;;;2.40;;
64063;SDS011;50314;50.618;10.642;2023-01-20T17:21:03;4.18;;;2.30;;
64063;SDS011;50314;50.618;10.642;2023-01-20T17:23:30;4.18;;;2.50;;